Terminal Aerodrome Forecast
Issued by NWS Sterling, VA

Current Version | Previous Version | Graphics & Text | Print | Product List | Glossary On
Versions: 1 2 3 4 5 6 7 8 9 10 11 12 13 14
000
FTUS41 KLWX 051725
TAFMRB
TAF
KMRB 051725Z 0518/0618 VRB06KT P6SM FEW070
     FM051900 28006KT 6SM -SHRA VCTS BKN050CB
     FM052200 27005KT P6SM BKN050
     FM060100 VRB03KT P6SM BKN090=

USA.gov is the U.S. government's official web portal to all federal, state and local government web resources and services.